sensor_id;sensor_type;location;lat;lon;timestamp;temperature;humidity
18268;DHT22;9260;49.998;19.880;2024-02-23T00:03:47;7.70;1.00
18268;DHT22;9260;49.998;19.880;2024-02-23T00:13:51;7.70;1.00
18268;DHT22;9260;49.998;19.880;2024-02-23T00:23:55;7.80;1.00
18268;DHT22;9260;49.998;19.880;2024-02-23T00:33:58;7.60;1.00
18268;DHT22;9260;49.998;19.880;2024-02-23T00:44:03;7.60;1.00
18268;DHT22;9260;49.998;19.880;2024-02-23T00:54:07;8.30;1.00
18268;DHT22;9260;49.998;19.880;2024-02-23T01:04:12;7.50;1.00
18268;DHT22;9260;49.998;19.880;2024-02-23T01:14:18;7.20;1.00
18268;DHT22;9260;49.998;19.880;2024-02-23T01:24:22;7.00;1.00
18268;DHT22;9260;49.998;19.880;2024-02-23T01:34:27;6.70;1.00
18268;DHT22;9260;49.998;19.880;2024-02-23T01:44:32;6.60;1.00
18268;DHT22;9260;49.998;19.880;2024-02-23T01:54:35;6.70;1.00
18268;DHT22;9260;49.998;19.880;2024-02-23T02:04:40;6.40;1.00
18268;DHT22;9260;49.998;19.880;2024-02-23T02:14:43;6.30;1.00
18268;DHT22;9260;49.998;19.880;2024-02-23T02:24:48;6.40;1.00
18268;DHT22;9260;49.998;19.880;2024-02-23T02:34:51;6.60;1.00
18268;DHT22;9260;49.998;19.880;2024-02-23T02:44:56;6.40;1.00
18268;DHT22;9260;49.998;19.880;2024-02-23T02:54:59;6.60;1.00
18268;DHT22;9260;49.998;19.880;2024-02-23T03:05:05;6.40;1.00
18268;DHT22;9260;49.998;19.880;2024-02-23T03:15:08;6.60;1.00
18268;DHT22;9260;49.998;19.880;2024-02-23T03:25:14;6.50;1.00
18268;DHT22;9260;49.998;19.880;2024-02-23T03:35:17;7.50;1.00
18268;DHT22;9260;49.998;19.880;2024-02-23T03:45:22;6.60;1.00
18268;DHT22;9260;49.998;19.880;2024-02-23T03:55:25;7.40;1.00
18268;DHT22;9260;49.998;19.880;2024-02-23T04:05:30;6.50;1.00
18268;DHT22;9260;49.998;19.880;2024-02-23T04:15:34;7.10;1.00
18268;DHT22;9260;49.998;19.880;2024-02-23T04:25:39;6.40;1.00
18268;DHT22;9260;49.998;19.880;2024-02-23T04:35:42;6.30;1.00
18268;DHT22;9260;49.998;19.880;2024-02-23T04:45:47;6.10;1.00
18268;DHT22;9260;49.998;19.880;2024-02-23T04:55:50;6.10;1.00
18268;DHT22;9260;49.998;19.880;2024-02-23T05:05:55;5.80;1.00
18268;DHT22;9260;49.998;19.880;2024-02-23T05:15:58;6.40;1.00
18268;DHT22;9260;49.998;19.880;2024-02-23T05:26:03;5.80;1.00
18268;DHT22;9260;49.998;19.880;2024-02-23T05:36:09;5.70;1.00
18268;DHT22;9260;49.998;19.880;2024-02-23T05:46:13;5.60;1.00
18268;DHT22;9260;49.998;19.880;2024-02-23T05:56:16;6.00;1.00
18268;DHT22;9260;49.998;19.880;2024-02-23T06:06:21;5.70;1.00
18268;DHT22;9260;49.998;19.880;2024-02-23T06:16:25;6.00;1.00
18268;DHT22;9260;49.998;19.880;2024-02-23T06:26:30;5.80;1.00
18268;DHT22;9260;49.998;19.880;2024-02-23T06:36:34;6.00;1.00
18268;DHT22;9260;49.998;19.880;2024-02-23T06:46:38;6.00;1.00
18268;DHT22;9260;49.998;19.880;2024-02-23T06:56:42;6.40;1.00
18268;DHT22;9260;49.998;19.880;2024-02-23T07:06:46;6.80;1.00
18268;DHT22;9260;49.998;19.880;2024-02-23T07:16:50;7.10;1.00
18268;DHT22;9260;49.998;19.880;2024-02-23T07:26:55;7.30;1.00
18268;DHT22;9260;49.998;19.880;2024-02-23T07:36:58;7.20;1.00
18268;DHT22;9260;49.998;19.880;2024-02-23T07:47:03;7.10;1.00
18268;DHT22;9260;49.998;19.880;2024-02-23T07:57:07;7.10;1.00
18268;DHT22;9260;49.998;19.880;2024-02-23T08:07:12;7.10;1.00
18268;DHT22;9260;49.998;19.880;2024-02-23T08:17:15;7.10;1.00
18268;DHT22;9260;49.998;19.880;2024-02-23T08:27:20;7.30;1.00
18268;DHT22;9260;49.998;19.880;2024-02-23T08:37:23;7.30;1.00
18268;DHT22;9260;49.998;19.880;2024-02-23T08:47:28;7.40;1.00
18268;DHT22;9260;49.998;19.880;2024-02-23T08:57:34;7.60;1.00
18268;DHT22;9260;49.998;19.880;2024-02-23T09:07:39;7.80;1.00
18268;DHT22;9260;49.998;19.880;2024-02-23T09:17:43;7.90;1.00
18268;DHT22;9260;49.998;19.880;2024-02-23T09:27:48;7.80;1.00
18268;DHT22;9260;49.998;19.880;2024-02-23T09:37:51;8.10;1.00
18268;DHT22;9260;49.998;19.880;2024-02-23T09:47:57;8.20;1.00
18268;DHT22;9260;49.998;19.880;2024-02-23T09:58:00;8.30;1.00
18268;DHT22;9260;49.998;19.880;2024-02-23T10:08:06;8.50;1.00
18268;DHT22;9260;49.998;19.880;2024-02-23T10:18:10;8.70;1.00
18268;DHT22;9260;49.998;19.880;2024-02-23T10:28:15;9.30;1.00
18268;DHT22;9260;49.998;19.880;2024-02-23T10:38:18;9.60;1.00
18268;DHT22;9260;49.998;19.880;2024-02-23T10:48:23;10.60;1.00
18268;DHT22;9260;49.998;19.880;2024-02-23T10:58:27;11.20;1.00
18268;DHT22;9260;49.998;19.880;2024-02-23T11:08:33;11.00;1.00
18268;DHT22;9260;49.998;19.880;2024-02-23T11:18:39;11.10;1.00
18268;DHT22;9260;49.998;19.880;2024-02-23T11:28:47;10.90;1.00
18268;DHT22;9260;49.998;19.880;2024-02-23T11:38:53;10.30;1.00
18268;DHT22;9260;49.998;19.880;2024-02-23T11:48:59;10.30;1.00
18268;DHT22;9260;49.998;19.880;2024-02-23T11:59:02;11.00;1.00
18268;DHT22;9260;49.998;19.880;2024-02-23T12:09:07;9.90;1.00
18268;DHT22;9260;49.998;19.880;2024-02-23T12:19:10;11.10;1.00
18268;DHT22;9260;49.998;19.880;2024-02-23T12:29:15;11.70;1.00
18268;DHT22;9260;49.998;19.880;2024-02-23T12:39:18;11.30;1.00
18268;DHT22;9260;49.998;19.880;2024-02-23T12:49:24;11.10;1.00
18268;DHT22;9260;49.998;19.880;2024-02-23T12:59:27;10.90;1.00
18268;DHT22;9260;49.998;19.880;2024-02-23T13:09:32;11.40;1.00
18268;DHT22;9260;49.998;19.880;2024-02-23T13:19:35;10.30;1.00
18268;DHT22;9260;49.998;19.880;2024-02-23T13:29:40;10.10;1.00
18268;DHT22;9260;49.998;19.880;2024-02-23T13:39:44;10.00;1.00
18268;DHT22;9260;49.998;19.880;2024-02-23T13:49:48;9.80;1.00
18268;DHT22;9260;49.998;19.880;2024-02-23T13:59:52;12.80;1.00
18268;DHT22;9260;49.998;19.880;2024-02-23T14:09:56;9.40;1.00
18268;DHT22;9260;49.998;19.880;2024-02-23T14:19:59;9.10;1.00
18268;DHT22;9260;49.998;19.880;2024-02-23T14:30:05;8.70;1.00
18268;DHT22;9260;49.998;19.880;2024-02-23T14:40:10;8.60;1.00
18268;DHT22;9260;49.998;19.880;2024-02-23T14:50:17;8.30;1.00
18268;DHT22;9260;49.998;19.880;2024-02-23T15:00:22;8.30;1.00
18268;DHT22;9260;49.998;19.880;2024-02-23T15:10:27;8.30;1.00
18268;DHT22;9260;49.998;19.880;2024-02-23T15:20:30;8.10;1.00
18268;DHT22;9260;49.998;19.880;2024-02-23T15:30:35;8.90;1.00
18268;DHT22;9260;49.998;19.880;2024-02-23T15:40:39;7.90;1.00
18268;DHT22;9260;49.998;19.880;2024-02-23T15:50:43;8.20;1.00
18268;DHT22;9260;49.998;19.880;2024-02-23T16:01:07;7.30;1.00
18268;DHT22;9260;49.998;19.880;2024-02-23T16:11:12;7.10;1.00
18268;DHT22;9260;49.998;19.880;2024-02-23T16:21:16;6.90;1.00
18268;DHT22;9260;49.998;19.880;2024-02-23T16:31:21;6.50;1.00
18268;DHT22;9260;49.998;19.880;2024-02-23T16:41:24;6.50;1.00
18268;DHT22;9260;49.998;19.880;2024-02-23T16:51:29;6.30;1.00
18268;DHT22;9260;49.998;19.880;2024-02-23T17:01:32;6.30;1.00
18268;DHT22;9260;49.998;19.880;2024-02-23T17:11:38;5.80;1.00
18268;DHT22;9260;49.998;19.880;2024-02-23T17:21:41;5.80;1.00
18268;DHT22;9260;49.998;19.880;2024-02-23T17:31:46;6.00;1.00
18268;DHT22;9260;49.998;19.880;2024-02-23T17:41:49;6.40;1.00
18268;DHT22;9260;49.998;19.880;2024-02-23T17:51:54;6.20;1.00
18268;DHT22;9260;49.998;19.880;2024-02-23T18:01:57;6.20;1.00
18268;DHT22;9260;49.998;19.880;2024-02-23T18:12:02;6.20;1.00
18268;DHT22;9260;49.998;19.880;2024-02-23T18:22:07;5.90;1.00
18268;DHT22;9260;49.998;19.880;2024-02-23T18:32:12;6.00;1.00
18268;DHT22;9260;49.998;19.880;2024-02-23T18:42:16;6.00;1.00
18268;DHT22;9260;49.998;19.880;2024-02-23T18:52:21;5.90;1.00
18268;DHT22;9260;49.998;19.880;2024-02-23T19:02:24;6.10;1.00
18268;DHT22;9260;49.998;19.880;2024-02-23T19:12:29;5.80;1.00
18268;DHT22;9260;49.998;19.880;2024-02-23T19:22:32;5.80;1.00
18268;DHT22;9260;49.998;19.880;2024-02-23T19:32:37;5.90;1.00
18268;DHT22;9260;49.998;19.880;2024-02-23T19:42:40;5.90;1.00
18268;DHT22;9260;49.998;19.880;2024-02-23T19:52:45;6.00;1.00
18268;DHT22;9260;49.998;19.880;2024-02-23T20:02:48;5.80;1.00
18268;DHT22;9260;49.998;19.880;2024-02-23T20:12:58;5.60;1.00
18268;DHT22;9260;49.998;19.880;2024-02-23T20:23:01;5.50;1.00
18268;DHT22;9260;49.998;19.880;2024-02-23T20:33:06;5.60;1.00
18268;DHT22;9260;49.998;19.880;2024-02-23T20:43:10;5.60;1.00
18268;DHT22;9260;49.998;19.880;2024-02-23T20:53:15;5.50;1.00
18268;DHT22;9260;49.998;19.880;2024-02-23T21:03:18;5.60;1.00
18268;DHT22;9260;49.998;19.880;2024-02-23T21:13:24;5.70;1.00
18268;DHT22;9260;49.998;19.880;2024-02-23T21:23:28;5.60;1.00
18268;DHT22;9260;49.998;19.880;2024-02-23T21:33:32;5.20;1.00
18268;DHT22;9260;49.998;19.880;2024-02-23T21:43:36;6.00;1.00
18268;DHT22;9260;49.998;19.880;2024-02-23T21:53:40;4.60;1.00
18268;DHT22;9260;49.998;19.880;2024-02-23T22:03:44;5.60;1.00
18268;DHT22;9260;49.998;19.880;2024-02-23T22:13:50;5.40;1.00
18268;DHT22;9260;49.998;19.880;2024-02-23T22:23:53;4.60;1.00
18268;DHT22;9260;49.998;19.880;2024-02-23T22:33:58;5.40;1.00
18268;DHT22;9260;49.998;19.880;2024-02-23T22:44:01;5.80;1.00
18268;DHT22;9260;49.998;19.880;2024-02-23T22:54:06;5.30;1.00
18268;DHT22;9260;49.998;19.880;2024-02-23T23:04:10;5.50;1.00
18268;DHT22;9260;49.998;19.880;2024-02-23T23:14:14;5.10;1.00
18268;DHT22;9260;49.998;19.880;2024-02-23T23:24:17;5.60;1.00
18268;DHT22;9260;49.998;19.880;2024-02-23T23:34:23;5.20;1.00
18268;DHT22;9260;49.998;19.880;2024-02-23T23:44:26;5.20;1.00
18268;DHT22;9260;49.998;19.880;2024-02-23T23:54:31;5.00;1.00
